Nome, AK

11:59 AM AKDT on July 28, 2017 (GMT -0800)
MNMTA2 | | Change Station

Elev 0 ft 64.50 °N, 165.43 °W | Updated 72 days ago

Light Rain
Light Rain Mist
38.0 °F
Feels Like 31 °F
N
10.0
Wind Variable Wind from WNW
Gusts 11.0 mph

Today
High -- | Low -- °F
--% Chance of Precip.
Yesterday
High -- | Low -- °F
Precip. -- in
Pressure 29.63 in
Visibility 2.0 miles
Clouds Mostly Cloudy 600 ft
Overcast 1200 ft
Windchill 31 °F
Dew Point Not available.
Humidity Not available.
Rainfall in
Snow Depth Not available.
5:53 AM 0:20 AM
Waxing Crescent, 32% visible
METAR PAOM 281953Z 17007KT 2SM -RA BR BKN006 OVC012 10/10 A2963 RMK SLP033 P0002 T01000100 VIA AUTODIAL
Pressure 29.63 in
Visibility 2.0 miles
Clouds Mostly Cloudy 600 ft
Overcast 1200 ft
Windchill 31 °F
Dew Point Not available.
Humidity Not available.
Rainfall in
Snow Depth Not available.
5:53 AM 0:20 AM
Waxing Crescent, 32% visible
METAR PAOM 281953Z 17007KT 2SM -RA BR BKN006 OVC012 10/10 A2963 RMK SLP033 P0002 T01000100 VIA AUTODIAL

Get Severe Weather Alerts

Thanks for signing up!

Be on the lookout for a verification email in your inbox.

You'll start receiving the daily forecast at 6 AM.

×

10-Day Weather Forecast

Almanac

Astronomy

Jul. 28, 2017 Rise Set
Actual Time
Civil Twilight
Nautical Twilight
Astronomical Twilight
Moon
Length of Visible Light
Length of Day
Tomorrow will be .
, % of the Moon is Illuminated

Today's Extremes

State Highs State Lows

Community

WunderPhotos

Category 6

Welcome to Category 6. This is the collective home for Weather Underground's featured writeups by Dr. Jeff Masters (right), Bob Henson (left), Chris Burt, and other regular contributors.

Nearby

Air Quality

  Air Quality AQ Index Pollutant
Not available.

Snow Depth

Station Depth Elevation

Earthquake Activity

City Distance Mag. Time & Date
Minimum magnitude displayed is 2.5.

Coastal Water Temperatures

Place Temperature

Stations

Nearby Weather Stations

Station Location Temp. Windchill Dew Point Humidity Wind Precip. Elev Updated Type
                   

Watches & Warnings

There are currently no watches in effect.